»·PEaware :: N108LC L88-KSBP

N108LC :: L88-KSBP

FLIGHT INFORMATION

Flight Status: Arrived
Operator: Privately registered:
United States
More flights under this callsign
Pilot: Kamalata D. (45478)
Aircraft: CIRRUS SR-22
(SR22)
More flights by this aircraft type
Origin: L88 New Cuyama
United States
Destination: KSBP San Luis Co Regl
United States
More flights between these airports :: More routes between these airports
Route:
File this flight plan on PilotEdge
Remarks:
Altitude:
(Current/Filed)
6,500ft
Speed:
(Current/Filed)
160kts
Departed: 08-Nov-23 03:25 PM
Arrived: 08-Nov-23 03:47 PM
Distance/Time
Traveled:
50nm/0:22
Distance/Time
To Go:
Arrived

Flight Plot

Page will automatically refresh every two minutes.


Map Options




Map Legend


Flown Route
Filed Route
Departure Airport
Arrival Airport
Navaid (VOR, NDB)
Fix

Horizontal Profiles

Position Reports

Time Latitude Longitude Heading Altitude Ground
Speed
08-Nov-23 14:59 34.942986 -119.690806 336 2181ft 0kts
08-Nov-23 15:00 34.942986 -119.690806 336 2176ft 0kts
08-Nov-23 15:01 34.942986 -119.690806 336 2176ft 0kts
08-Nov-23 15:02 34.942986 -119.690806 336 2176ft 0kts
08-Nov-23 15:03 34.942986 -119.690806 336 2176ft 0kts
08-Nov-23 15:04 34.942986 -119.690806 336 2176ft 0kts
08-Nov-23 15:05 34.942986 -119.690806 336 2176ft 0kts
08-Nov-23 15:06 34.942986 -119.690806 336 2176ft 0kts
08-Nov-23 15:07 34.942986 -119.690806 336 2176ft 0kts
08-Nov-23 15:08 34.942986 -119.690806 336 2176ft 0kts
08-Nov-23 15:09 34.942986 -119.690805 336 2181ft 0kts
08-Nov-23 15:10 34.942986 -119.690806 336 2181ft 0kts
08-Nov-23 15:11 34.942986 -119.690806 336 2181ft 0kts
08-Nov-23 15:12 34.942986 -119.690806 336 2181ft 0kts
08-Nov-23 15:13 34.942986 -119.690806 336 2181ft 0kts
08-Nov-23 15:14 34.942986 -119.690806 336 2181ft 0kts
08-Nov-23 15:15 34.942986 -119.690805 336 2181ft 0kts
08-Nov-23 15:16 34.942986 -119.690805 336 2181ft 0kts
08-Nov-23 15:17 34.942986 -119.690805 336 2181ft 0kts
08-Nov-23 15:18 34.943014 -119.691086 216 2173ft 0kts
08-Nov-23 15:19 34.942773 -119.691233 197 2173ft 0kts
08-Nov-23 15:20 34.942748 -119.691246 204 2174ft 0kts
08-Nov-23 15:21 34.941370 -119.689090 113 2182ft 16kts
08-Nov-23 15:22 34.938690 -119.682528 117 2212ft 25kts
08-Nov-23 15:23 34.937761 -119.680170 298 2220ft 0kts
08-Nov-23 15:24 34.940577 -119.687015 296 2198ft 94kts
08-Nov-23 15:25 34.951445 -119.717795 294 3090ft 117kts
08-Nov-23 15:26 34.951445 -119.717795 294 3090ft 117kts
08-Nov-23 15:27 34.967460 -119.768895 282 4348ft 152kts
08-Nov-23 15:28 34.980140 -119.818391 293 5159ft 154kts
08-Nov-23 15:29 34.994056 -119.869050 291 5979ft 161kts
08-Nov-23 15:30 35.006584 -119.922599 291 6464ft 176kts
08-Nov-23 15:31 35.022481 -119.981578 297 6458ft 183kts
08-Nov-23 15:32 35.041601 -120.039843 295 6448ft 187kts
08-Nov-23 15:33 35.061062 -120.097748 296 6447ft 185kts
08-Nov-23 15:34 35.080971 -120.156063 295 6444ft 187kts
08-Nov-23 15:35 35.100993 -120.215205 296 6150ft 191kts
08-Nov-23 15:36 35.122051 -120.275387 297 5599ft 195kts
08-Nov-23 15:37 35.143590 -120.336839 296 4903ft 195kts
08-Nov-23 15:38 35.159739 -120.388481 294 4418ft 136kts
08-Nov-23 15:39 35.170448 -120.429237 292 4272ft 123kts
08-Nov-23 15:40 35.180168 -120.467150 291 4163ft 118kts
08-Nov-23 15:41 35.188968 -120.505298 292 4019ft 123kts
08-Nov-23 15:42 35.193529 -120.546675 287 3348ft 136kts
08-Nov-23 15:43 35.204931 -120.584633 309 2114ft 109kts
08-Nov-23 15:44 35.221310 -120.613723 310 1201ft 94kts
08-Nov-23 15:45 35.234063 -120.635254 302 209ft 60kts
08-Nov-23 15:46 35.235375 -120.636035 72 206ft 0kts
08-Nov-23 15:47 35.235375 -120.636035 72 206ft 0kts
08-Nov-23 15:48 35.236614 -120.637815 307 200ft 39kts

Navigation Log

Ident Type
Flight plan parsing failed, navigation log unavailable